Time;durP1;ratioP1;P1;durP2;ratioP2;P2;SDS_P1;SDS_P2;PMS_P1;PMS_P2;Temp;Humidity;BMP_temperature;BMP_pressure;BME280_temperature;BME280_humidity;BME280_pressure;Samples;Min_cycle;Max_cycle;Signal;HPM_P1;HPM_P2
2023/09/14 00:00:34;;;;;;;2.80;1.80;;;19.20;58.80;;;;;;4978572;28;20703;-58
2023/09/14 00:03:02;;;;;;;1.83;1.55;;;19.20;58.80;;;;;;4977062;28;20069;-60
2023/09/14 00:05:31;;;;;;;3.75;1.92;;;19.20;58.70;;;;;;4978419;28;20046;-58
2023/09/14 00:07:58;;;;;;;2.10;1.50;;;19.20;59.10;;;;;;4977731;28;20062;-57
2023/09/14 00:10:25;;;;;;;2.63;1.38;;;19.10;58.50;;;;;;4977673;28;20061;-57
2023/09/14 00:12:53;;;;;;;4.05;1.90;;;19.10;58.50;;;;;;4979591;28;20054;-59
2023/09/14 00:15:20;;;;;;;3.35;1.92;;;19.10;58.50;;;;;;4978791;28;20884;-58
2023/09/14 00:17:48;;;;;;;5.35;2.25;;;19.10;58.40;;;;;;4975724;28;20054;-57
2023/09/14 00:20:20;;;;;;;3.45;1.77;;;19.00;58.20;;;;;;4977186;28;20062;-56
2023/09/14 00:22:50;;;;;;;5.10;2.00;;;19.00;58.20;;;;;;4978680;28;20502;-58
2023/09/14 00:25:18;;;;;;;3.70;2.13;;;19.00;58.10;;;;;;4979074;28;20046;-58
2023/09/14 00:27:46;;;;;;;4.55;2.33;;;18.90;58.10;;;;;;4976114;28;20092;-57
2023/09/14 00:30:14;;;;;;;5.45;2.22;;;18.90;58.10;;;;;;4980431;28;20058;-57
2023/09/14 00:32:42;;;;;;;5.57;2.13;;;18.80;58.10;;;;;;4978489;28;20050;-61
2023/09/14 00:35:10;;;;;;;3.47;1.90;;;18.70;58.00;;;;;;4977900;28;20058;-62
2023/09/14 00:37:37;;;;;;;2.72;1.75;;;18.70;58.10;;;;;;4978555;28;20054;-61
2023/09/14 00:40:08;;;;;;;3.58;1.65;;;18.60;58.20;;;;;;4978231;28;20050;-61
2023/09/14 00:42:38;;;;;;;7.32;1.80;;;18.60;58.30;;;;;;4978272;28;20054;-60
2023/09/14 00:45:06;;;;;;;3.83;1.85;;;18.60;58.30;;;;;;4977108;28;20054;-60
2023/09/14 00:47:35;;;;;;;2.78;1.55;;;18.50;58.30;;;;;;4974448;28;20057;-61
2023/09/14 00:50:04;;;;;;;4.28;2.10;;;18.50;58.40;;;;;;4975947;28;20050;-62
2023/09/14 00:52:32;;;;;;;2.22;1.90;;;18.50;58.50;;;;;;4977583;28;20054;-61
2023/09/14 00:55:01;;;;;;;5.00;1.88;;;18.40;58.40;;;;;;4981065;28;20384;-61
2023/09/14 00:57:29;;;;;;;3.38;1.75;;;18.40;58.50;;;;;;4973998;28;20054;-61
2023/09/14 00:59:56;;;;;;;5.30;2.08;;;18.40;58.50;;;;;;4978377;28;20518;-61
2023/09/14 01:02:25;;;;;;;3.63;2.08;;;18.40;58.50;;;;;;4975638;28;20062;-62
2023/09/14 01:04:52;;;;;;;3.50;1.95;;;18.40;58.50;;;;;;4990295;23;20065;-60
2023/09/14 01:07:20;;;;;;;4.05;2.10;;;18.40;58.60;;;;;;4976011;28;20397;-60
2023/09/14 01:09:47;;;;;;;3.03;1.75;;;18.30;58.50;;;;;;4978557;28;20058;-59
2023/09/14 01:12:14;;;;;;;3.78;2.00;;;18.30;58.50;;;;;;4978745;28;20490;-60
2023/09/14 01:14:50;;;;;;;4.35;2.22;;;18.30;58.50;;;;;;4970541;28;20058;-56
2023/09/14 01:17:24;;;;;;;5.05;2.20;;;18.30;58.30;;;;;;4975016;28;20058;-56
2023/09/14 01:20:03;;;;;;;3.42;1.70;;;18.30;58.20;;;;;;4978462;28;20496;-57
2023/09/14 01:22:39;;;;;;;3.88;2.05;;;18.20;58.20;;;;;;4977529;28;21053;-57
2023/09/14 01:25:15;;;;;;;5.03;1.80;;;18.20;58.20;;;;;;4979813;28;20054;-57
2023/09/14 01:27:44;;;;;;;4.35;2.05;;;18.10;58.30;;;;;;4978431;28;20498;-56
2023/09/14 01:30:11;;;;;;;3.03;2.08;;;18.10;58.30;;;;;;4977383;28;20046;-58
2023/09/14 01:32:39;;;;;;;1.55;1.30;;;18.10;58.30;;;;;;4977974;28;20050;-57
2023/09/14 01:35:08;;;;;;;6.90;1.42;;;18.10;58.40;;;;;;4975560;28;20065;-56
2023/09/14 01:37:35;;;;;;;2.58;1.60;;;18.00;58.50;;;;;;4974112;28;20556;-58
2023/09/14 01:40:06;;;;;;;2.85;1.70;;;18.00;58.50;;;;;;4978184;28;20061;-57
2023/09/14 01:42:33;;;;;;;2.15;1.90;;;18.00;58.60;;;;;;4975981;28;20057;-58
2023/09/14 01:45:04;;;;;;;4.18;1.92;;;17.90;58.50;;;;;;4978634;28;20054;-57
2023/09/14 01:47:31;;;;;;;3.33;1.80;;;17.90;58.40;;;;;;4982199;28;20050;-57
2023/09/14 01:49:58;;;;;;;3.05;1.88;;;17.90;58.40;;;;;;4981133;28;20506;-57
2023/09/14 01:52:25;;;;;;;2.72;1.98;;;17.90;58.40;;;;;;4979791;28;20058;-57
2023/09/14 01:54:53;;;;;;;2.97;2.28;;;17.80;58.40;;;;;;4981359;28;20058;-58
2023/09/14 01:57:20;;;;;;;3.17;2.17;;;17.80;58.40;;;;;;4980997;28;20050;-57
2023/09/14 01:59:47;;;;;;;3.67;1.90;;;17.80;58.60;;;;;;4979353;28;20053;-57
2023/09/14 02:02:16;;;;;;;2.58;1.80;;;17.70;58.70;;;;;;4979012;28;20054;-57
2023/09/14 02:04:43;;;;;;;2.60;1.58;;;17.70;58.90;;;;;;4962717;28;20059;-57
2023/09/14 02:07:10;;;;;;;2.70;1.50;;;17.70;59.00;;;;;;4960735;28;20049;-57
2023/09/14 02:09:37;;;;;;;2.80;1.80;;;17.70;59.10;;;;;;4960284;28;20491;-58
2023/09/14 02:12:05;;;;;;;3.90;1.80;;;17.70;59.30;;;;;;4956971;28;20057;-58
2023/09/14 02:14:32;;;;;;;3.25;2.08;;;17.70;59.30;;;;;;4955136;28;20055;-58
2023/09/14 02:17:00;;;;;;;3.35;2.28;;;17.70;59.30;;;;;;4955366;28;20051;-57
2023/09/14 02:19:28;;;;;;;5.40;2.20;;;17.70;59.40;;;;;;4956478;28;20414;-56
2023/09/14 02:21:55;;;;;;;2.85;2.20;;;17.70;59.30;;;;;;4957285;28;20724;-58
2023/09/14 02:24:23;;;;;;;5.15;2.50;;;17.70;59.30;;;;;;4958172;28;20047;-58
2023/09/14 02:26:54;;;;;;;2.60;1.85;;;17.60;59.30;;;;;;4956610;28;20051;-57
2023/09/14 02:29:21;;;;;;;3.65;1.90;;;17.60;59.30;;;;;;4958061;28;20051;-57
2023/09/14 02:31:48;;;;;;;3.13;2.28;;;17.60;59.30;;;;;;4956469;28;20070;-57
2023/09/14 02:34:15;;;;;;;6.13;2.30;;;17.60;59.50;;;;;;4958093;28;20410;-57
2023/09/14 02:36:44;;;;;;;5.70;2.80;;;17.60;59.50;;;;;;4954427;28;20602;-57
2023/09/14 02:39:11;;;;;;;4.03;2.55;;;17.60;59.50;;;;;;4957333;28;20062;-58
2023/09/14 02:41:38;;;;;;;5.00;2.67;;;17.60;59.50;;;;;;4959395;28;20509;-58
2023/09/14 02:44:06;;;;;;;5.10;3.17;;;17.60;59.50;;;;;;4958830;28;20062;-57
2023/09/14 02:46:33;;;;;;;4.85;2.30;;;17.60;59.50;;;;;;4955833;28;20058;-58
2023/09/14 02:49:00;;;;;;;4.43;2.42;;;17.60;59.60;;;;;;4953148;28;20066;-58
2023/09/14 02:51:28;;;;;;;3.42;2.35;;;17.50;59.60;;;;;;4955646;28;20059;-57
2023/09/14 02:53:56;;;;;;;5.00;3.17;;;17.60;59.80;;;;;;4959151;28;20059;-57
2023/09/14 02:56:23;;;;;;;3.95;2.30;;;17.50;59.90;;;;;;4959790;28;20058;-57
2023/09/14 02:58:51;;;;;;;5.22;2.72;;;17.50;59.90;;;;;;4957828;28;20406;-57
2023/09/14 03:01:20;;;;;;;5.18;2.88;;;17.50;60.00;;;;;;4961915;28;20445;-58
2023/09/14 03:03:48;;;;;;;5.28;3.00;;;17.50;60.00;;;;;;4960503;28;20063;-58
2023/09/14 03:06:15;;;;;;;4.93;2.80;;;17.60;60.00;;;;;;4959823;28;20387;-58
2023/09/14 03:08:42;;;;;;;4.35;2.75;;;17.60;59.90;;;;;;4961765;28;20059;-58
2023/09/14 03:11:11;;;;;;;4.32;2.63;;;17.60;59.90;;;;;;4958967;28;20058;-58
2023/09/14 03:13:38;;;;;;;6.43;3.08;;;17.50;59.90;;;;;;4958285;28;20081;-58
2023/09/14 03:16:06;;;;;;;4.38;2.20;;;17.50;59.90;;;;;;4958598;28;20066;-59
2023/09/14 03:18:33;;;;;;;4.82;2.92;;;17.50;60.00;;;;;;4958611;28;20419;-57
2023/09/14 03:21:00;;;;;;;3.03;2.33;;;17.50;60.00;;;;;;4959550;28;20070;-57
2023/09/14 03:23:27;;;;;;;6.32;2.67;;;17.50;60.00;;;;;;4960908;28;20058;-56
2023/09/14 03:25:57;;;;;;;2.90;1.88;;;17.50;60.00;;;;;;4960829;28;20954;-56
2023/09/14 03:28:25;;;;;;;2.15;1.83;;;17.50;60.00;;;;;;4962216;28;20070;-57
2023/09/14 03:30:53;;;;;;;2.30;1.85;;;17.50;60.00;;;;;;4961045;28;20494;-58
2023/09/14 03:33:20;;;;;;;2.70;2.08;;;17.40;59.80;;;;;;4959741;28;20062;-56
2023/09/14 03:35:47;;;;;;;2.10;1.75;;;17.40;59.70;;;;;;4957993;28;20081;-58
2023/09/14 03:38:17;;;;;;;3.63;1.98;;;17.40;59.60;;;;;;4959102;28;20054;-58
2023/09/14 03:40:45;;;;;;;2.42;1.33;;;17.50;59.60;;;;;;4960462;28;20061;-57
2023/09/14 03:43:12;;;;;;;4.95;1.83;;;17.40;59.50;;;;;;4962976;28;20062;-58
2023/09/14 03:45:40;;;;;;;2.53;1.67;;;17.40;59.50;;;;;;4960059;28;20055;-57
2023/09/14 03:48:08;;;;;;;3.85;1.80;;;17.40;59.40;;;;;;4960713;28;20055;-56
2023/09/14 03:50:35;;;;;;;4.50;1.67;;;17.40;59.30;;;;;;4960717;28;20055;-57
2023/09/14 03:53:02;;;;;;;4.68;2.38;;;17.40;59.20;;;;;;4959819;28;20059;-56
2023/09/14 03:55:30;;;;;;;4.35;2.42;;;17.40;59.10;;;;;;4964552;28;20050;-56
2023/09/14 03:57:58;;;;;;;5.90;2.47;;;17.40;58.90;;;;;;4961559;28;20474;-59
2023/09/14 04:00:25;;;;;;;3.35;2.25;;;17.30;58.90;;;;;;4961261;28;20062;-56
2023/09/14 04:02:55;;;;;;;2.67;2.25;;;17.30;58.90;;;;;;4962612;28;20057;-57
2023/09/14 04:05:22;;;;;;;3.47;2.60;;;17.30;59.10;;;;;;4941761;28;20043;-58
2023/09/14 04:07:49;;;;;;;10.25;5.13;;;17.20;59.10;;;;;;4943902;28;20054;-57
2023/09/14 04:10:17;;;;;;;85.53;38.85;;;17.20;59.20;;;;;;4944901;28;20055;-58
2023/09/14 04:12:44;;;;;;;36.67;17.90;;;17.20;59.20;;;;;;4943525;28;20059;-57
2023/09/14 04:15:12;;;;;;;10.93;6.15;;;17.20;59.30;;;;;;4943859;28;20074;-57
2023/09/14 04:17:39;;;;;;;9.75;3.38;;;17.20;59.20;;;;;;4938370;28;20062;-56
2023/09/14 04:20:10;;;;;;;6.78;2.80;;;17.20;59.20;;;;;;4943270;28;20263;-57
2023/09/14 04:22:37;;;;;;;4.65;2.10;;;17.10;59.20;;;;;;4941967;28;20055;-56
2023/09/14 04:25:06;;;;;;;3.45;2.33;;;17.10;59.20;;;;;;4942986;28;20419;-57
2023/09/14 04:27:33;;;;;;;3.38;2.38;;;17.10;59.20;;;;;;4942116;28;20058;-57
2023/09/14 04:30:01;;;;;;;3.63;1.92;;;17.10;59.10;;;;;;4943216;28;20059;-57
2023/09/14 04:32:28;;;;;;;2.92;1.58;;;17.10;59.10;;;;;;4943587;28;20066;-57
2023/09/14 04:34:55;;;;;;;3.70;2.90;;;17.10;59.10;;;;;;4943192;28;20059;-56
2023/09/14 04:37:24;;;;;;;4.43;2.67;;;17.10;59.10;;;;;;4943521;28;20051;-58
2023/09/14 04:39:51;;;;;;;3.70;2.58;;;17.00;59.10;;;;;;4943815;28;20059;-57
2023/09/14 04:42:18;;;;;;;4.80;2.72;;;17.00;59.10;;;;;;4944113;28;20062;-57
2023/09/14 04:44:50;;;;;;;3.47;2.92;;;17.00;59.00;;;;;;4942374;28;20071;-57
2023/09/14 04:47:17;;;;;;;4.63;3.05;;;17.00;59.00;;;;;;4942536;28;20521;-56
2023/09/14 04:49:44;;;;;;;5.18;3.15;;;17.00;59.00;;;;;;4939327;28;20055;-57
2023/09/14 04:52:12;;;;;;;6.22;3.40;;;16.90;59.00;;;;;;4934368;28;20555;-57
2023/09/14 04:54:41;;;;;;;8.65;3.90;;;17.00;59.00;;;;;;4938821;28;20063;-58
2023/09/14 04:57:08;;;;;;;3.67;2.70;;;16.90;58.80;;;;;;4938059;28;20054;-57
2023/09/14 04:59:36;;;;;;;5.05;3.55;;;16.90;58.80;;;;;;4943299;28;20051;-58
2023/09/14 05:02:03;;;;;;;4.78;3.10;;;16.90;58.90;;;;;;4935769;28;20059;-58
2023/09/14 05:04:30;;;;;;;5.30;3.40;;;16.90;59.00;;;;;;4930871;28;20059;-58
2023/09/14 05:06:58;;;;;;;8.25;4.60;;;16.80;59.00;;;;;;4929434;28;20051;-57
2023/09/14 05:09:25;;;;;;;6.55;3.65;;;16.80;59.10;;;;;;4932142;28;20926;-57
2023/09/14 05:11:53;;;;;;;8.20;3.05;;;16.80;59.20;;;;;;4932739;28;20055;-58
2023/09/14 05:14:21;;;;;;;2.88;2.42;;;16.80;59.20;;;;;;4932057;28;20059;-58
2023/09/14 05:16:48;;;;;;;5.55;2.72;;;16.80;59.20;;;;;;4933751;28;20062;-58
2023/09/14 05:19:15;;;;;;;4.20;3.05;;;16.80;59.30;;;;;;4936581;28;20403;-57
2023/09/14 05:21:43;;;;;;;3.70;3.13;;;16.80;59.30;;;;;;4933862;28;20073;-59
2023/09/14 05:24:10;;;;;;;5.10;3.35;;;16.80;59.30;;;;;;4935895;28;20051;-57
2023/09/14 05:26:37;;;;;;;7.03;3.40;;;16.80;59.30;;;;;;4936591;28;20051;-57
2023/09/14 05:29:06;;;;;;;3.17;2.70;;;16.80;59.30;;;;;;4937166;28;20411;-57
2023/09/14 05:31:34;;;;;;;3.17;2.83;;;16.80;59.30;;;;;;4935275;28;20069;-56
2023/09/14 05:34:01;;;;;;;3.42;2.45;;;16.80;59.30;;;;;;4934688;28;20056;-58
2023/09/14 05:36:28;;;;;;;4.20;2.53;;;16.80;59.30;;;;;;4933720;28;20416;-58
2023/09/14 05:38:56;;;;;;;4.60;2.35;;;16.80;59.30;;;;;;4935884;28;20423;-57
2023/09/14 05:41:23;;;;;;;4.90;2.30;;;16.80;59.30;;;;;;4934426;28;20059;-57
2023/09/14 05:43:50;;;;;;;2.50;2.08;;;16.80;59.30;;;;;;4934981;28;20495;-59
2023/09/14 05:46:19;;;;;;;2.80;1.70;;;16.80;59.70;;;;;;4935356;28;20078;-58
2023/09/14 05:48:46;;;;;;;2.10;1.88;;;16.70;59.20;;;;;;4934976;28;20415;-58
2023/09/14 05:51:14;;;;;;;2.35;1.90;;;16.70;59.20;;;;;;4933881;28;20484;-58
2023/09/14 05:53:41;;;;;;;8.20;2.05;;;16.80;59.20;;;;;;4934166;28;20067;-59
2023/09/14 05:56:08;;;;;;;3.45;1.90;;;16.80;59.20;;;;;;4933834;28;20062;-59
2023/09/14 05:58:36;;;;;;;2.30;1.80;;;16.80;59.20;;;;;;4933372;28;20492;-59
2023/09/14 06:01:04;;;;;;;3.10;1.73;;;16.70;59.20;;;;;;4932870;28;20070;-58
2023/09/14 06:03:33;;;;;;;1.55;1.33;;;16.80;59.20;;;;;;4935193;28;20058;-58
2023/09/14 06:06:01;;;;;;;2.40;1.63;;;16.70;59.10;;;;;;4934904;28;20082;-58
2023/09/14 06:08:28;;;;;;;1.90;1.50;;;16.70;59.10;;;;;;4935506;28;20051;-59
2023/09/14 06:10:55;;;;;;;2.05;1.40;;;16.70;59.10;;;;;;4935224;28;20059;-58
2023/09/14 06:13:23;;;;;;;1.88;1.60;;;16.80;59.20;;;;;;4934698;28;20419;-59
2023/09/14 06:15:50;;;;;;;3.53;1.35;;;16.70;59.10;;;;;;4935298;28;20063;-58
2023/09/14 06:18:18;;;;;;;2.03;1.55;;;16.70;59.10;;;;;;4937044;28;20491;-58
2023/09/14 06:20:48;;;;;;;1.60;1.20;;;16.70;59.10;;;;;;4932045;28;20051;-58
2023/09/14 06:23:15;;;;;;;1.30;1.20;;;16.70;59.20;;;;;;4933684;28;20070;-58
2023/09/14 06:25:44;;;;;;;1.63;1.40;;;16.70;59.20;;;;;;4934131;28;20051;-57
2023/09/14 06:28:11;;;;;;;1.27;1.17;;;16.70;59.30;;;;;;4933584;28;20059;-58
2023/09/14 06:30:39;;;;;;;2.20;1.52;;;16.70;59.40;;;;;;4933864;28;20055;-59
2023/09/14 06:33:06;;;;;;;1.40;1.30;;;16.70;59.40;;;;;;4933901;28;20056;-58
2023/09/14 06:35:33;;;;;;;2.22;1.40;;;16.70;59.50;;;;;;4932954;28;20499;-58
2023/09/14 06:38:04;;;;;;;3.88;1.38;;;16.70;59.60;;;;;;4932348;28;20063;-58
2023/09/14 06:40:31;;;;;;;1.90;1.20;;;16.70;59.60;;;;;;4932610;28;20050;-58
2023/09/14 06:42:59;;;;;;;1.45;1.27;;;16.80;59.70;;;;;;4932468;28;20063;-58
2023/09/14 06:45:26;;;;;;;1.75;1.20;;;16.80;59.70;;;;;;4931652;28;20052;-59
2023/09/14 06:47:54;;;;;;;2.85;1.30;;;16.80;59.70;;;;;;4930888;28;20063;-59
2023/09/14 06:50:21;;;;;;;18.92;8.57;;;16.80;59.80;;;;;;4932566;28;20051;-59
2023/09/14 06:52:48;;;;;;;29.30;13.00;;;16.80;59.80;;;;;;4931857;28;20499;-58
2023/09/14 06:55:17;;;;;;;8.88;4.47;;;16.80;59.80;;;;;;4931604;28;20415;-57
2023/09/14 06:57:45;;;;;;;4.47;2.53;;;16.90;60.00;;;;;;4932261;28;20062;-56
2023/09/14 07:00:16;;;;;;;2.20;1.83;;;16.90;60.00;;;;;;4932392;28;20723;-59
2023/09/14 07:02:44;;;;;;;1.55;1.40;;;16.90;60.00;;;;;;4931221;28;20066;-58
2023/09/14 07:05:11;;;;;;;2.45;1.77;;;17.00;60.10;;;;;;4915938;28;20059;-57
2023/09/14 07:07:39;;;;;;;2.30;1.63;;;17.00;60.20;;;;;;4933133;28;20058;-56
2023/09/14 07:10:07;;;;;;;3.25;1.95;;;17.00;60.20;;;;;;4933688;28;20047;-58
2023/09/14 07:12:37;;;;;;;2.00;1.80;;;17.00;60.20;;;;;;4931678;28;20051;-58
2023/09/14 07:15:05;;;;;;;4.43;2.13;;;17.10;60.40;;;;;;4932039;28;20055;-58
2023/09/14 07:17:33;;;;;;;2.63;1.80;;;17.10;60.50;;;;;;4932689;28;20459;-57
2023/09/14 07:20:00;;;;;;;1.95;1.60;;;17.10;60.50;;;;;;4931521;28;20059;-58
2023/09/14 07:22:27;;;;;;;2.00;1.77;;;17.10;60.50;;;;;;4931040;28;20066;-57
2023/09/14 07:24:55;;;;;;;1.75;1.60;;;17.20;60.70;;;;;;4930229;28;20431;-59
2023/09/14 07:27:24;;;;;;;3.17;1.95;;;17.20;60.80;;;;;;4931284;28;20684;-59
2023/09/14 07:29:53;;;;;;;1.90;1.70;;;17.20;60.80;;;;;;4929191;28;20048;-56
2023/09/14 07:32:20;;;;;;;1.92;1.70;;;17.30;60.90;;;;;;4930102;28;20054;-58
2023/09/14 07:34:48;;;;;;;2.05;1.73;;;17.30;60.80;;;;;;4930297;28;20066;-57
2023/09/14 07:37:15;;;;;;;2.88;2.10;;;17.30;60.80;;;;;;4930956;28;20052;-57
2023/09/14 07:39:43;;;;;;;2.38;1.77;;;17.30;60.80;;;;;;4931415;28;20058;-59
2023/09/14 07:42:11;;;;;;;2.85;1.95;;;17.40;60.90;;;;;;4930373;28;20435;-58
2023/09/14 07:44:38;;;;;;;2.30;1.98;;;17.40;61.00;;;;;;4929374;28;20082;-57
2023/09/14 07:47:07;;;;;;;3.35;2.40;;;17.40;61.10;;;;;;4929655;28;20055;-58
2023/09/14 07:49:34;;;;;;;2.22;2.03;;;17.50;61.30;;;;;;4929667;28;20069;-58
2023/09/14 07:52:02;;;;;;;5.40;3.60;;;17.50;61.30;;;;;;4927704;28;20487;-58
2023/09/14 07:54:31;;;;;;;26.40;13.52;;;17.50;61.30;;;;;;4927790;28;20397;-59
2023/09/14 07:56:58;;;;;;;12.23;6.55;;;17.50;61.50;;;;;;4927036;28;20055;-58
2023/09/14 07:59:25;;;;;;;5.63;3.75;;;17.60;61.60;;;;;;4928836;28;20357;-58
2023/09/14 08:01:53;;;;;;;2.20;1.98;;;17.60;62.30;;;;;;4929386;28;20067;-57
2023/09/14 08:04:22;;;;;;;3.17;2.10;;;17.60;61.70;;;;;;4929350;28;20056;-57
2023/09/14 08:06:49;;;;;;;2.20;1.90;;;17.70;61.90;;;;;;4929506;28;20055;-59
2023/09/14 08:09:16;;;;;;;3.25;1.70;;;17.70;61.90;;;;;;4927606;28;20056;-58
2023/09/14 08:11:44;;;;;;;2.53;1.92;;;17.70;62.00;;;;;;4929851;28;20420;-57
2023/09/14 08:14:11;;;;;;;2.45;2.03;;;17.80;62.10;;;;;;4928367;28;20497;-57
2023/09/14 08:16:38;;;;;;;2.95;2.28;;;17.80;62.10;;;;;;4927582;28;20496;-58
2023/09/14 08:19:05;;;;;;;3.75;2.17;;;17.90;62.20;;;;;;4927878;28;20058;-58
2023/09/14 08:21:34;;;;;;;4.10;2.80;;;17.90;62.10;;;;;;4926159;28;20051;-57
2023/09/14 08:24:02;;;;;;;3.05;2.38;;;18.00;62.20;;;;;;4928184;28;20062;-57
2023/09/14 08:26:29;;;;;;;3.80;3.40;;;18.00;62.10;;;;;;4926752;28;20514;-58
2023/09/14 08:28:56;;;;;;;3.70;3.30;;;18.00;62.10;;;;;;4928323;28;20059;-58
2023/09/14 08:31:24;;;;;;;3.85;3.00;;;18.10;62.20;;;;;;4927914;28;20062;-58
2023/09/14 08:33:51;;;;;;;5.07;2.63;;;18.20;62.30;;;;;;4927356;28;20061;-58
2023/09/14 08:36:20;;;;;;;4.15;3.30;;;18.20;62.30;;;;;;4928342;28;20059;-57
2023/09/14 08:38:48;;;;;;;4.78;2.83;;;18.30;62.40;;;;;;4929815;28;20510;-58
2023/09/14 08:41:26;;;;;;;4.20;2.17;;;18.30;62.30;;;;;;4927248;28;20051;-57
2023/09/14 08:43:55;;;;;;;5.70;2.40;;;18.30;62.30;;;;;;4927159;28;20063;-57
2023/09/14 08:46:23;;;;;;;5.55;2.60;;;18.40;62.40;;;;;;4926525;28;20055;-58
2023/09/14 08:48:53;;;;;;;5.55;2.53;;;18.50;62.50;;;;;;4928856;28;20055;-57
2023/09/14 08:51:22;;;;;;;4.63;3.20;;;18.50;62.50;;;;;;4926569;28;20059;-57
2023/09/14 08:53:51;;;;;;;4.07;2.90;;;18.50;62.40;;;;;;4925237;28;20067;-57
2023/09/14 08:56:19;;;;;;;3.97;2.35;;;18.60;62.50;;;;;;4926601;28;20063;-58
2023/09/14 08:58:47;;;;;;;3.45;2.83;;;18.70;62.50;;;;;;4926713;28;20435;-58
2023/09/14 09:01:17;;;;;;;5.13;2.67;;;18.80;62.50;;;;;;4928288;28;20047;-57
2023/09/14 09:03:44;;;;;;;3.08;2.63;;;18.80;62.40;;;;;;4926365;28;20052;-57
2023/09/14 09:06:11;;;;;;;4.53;2.75;;;18.90;62.30;;;;;;4926789;28;20454;-57
2023/09/14 09:08:40;;;;;;;3.90;2.30;;;19.00;62.20;;;;;;4926968;28;20419;-58
2023/09/14 09:11:08;;;;;;;3.65;2.28;;;19.00;62.20;;;;;;4929894;28;20530;-57
2023/09/14 09:13:40;;;;;;;4.13;2.60;;;19.10;62.30;;;;;;4929456;28;20048;-57
2023/09/14 09:16:08;;;;;;;2.95;1.90;;;19.10;62.20;;;;;;4926331;28;20089;-59
2023/09/14 09:18:37;;;;;;;4.95;2.35;;;19.20;62.10;;;;;;4927078;28;20055;-59
2023/09/14 09:21:06;;;;;;;4.45;2.75;;;19.20;61.90;;;;;;4927496;28;20434;-57
2023/09/14 09:23:33;;;;;;;2.70;2.00;;;19.30;61.80;;;;;;4925529;28;20059;-58
2023/09/14 09:26:02;;;;;;;6.38;2.80;;;19.30;61.60;;;;;;4927284;28;20059;-57
2023/09/14 09:28:31;;;;;;;3.53;2.70;;;19.40;61.40;;;;;;4927029;28;20055;-59
2023/09/14 09:30:59;;;;;;;3.85;2.53;;;19.50;61.30;;;;;;4927169;28;20055;-57
2023/09/14 09:33:36;;;;;;;5.25;2.53;;;19.50;61.30;;;;;;4925896;28;20066;-56
2023/09/14 09:36:15;;;;;;;3.78;2.50;;;19.50;61.00;;;;;;4924556;28;20063;-57
2023/09/14 09:38:42;;;;;;;3.40;2.33;;;19.60;61.50;;;;;;4926471;28;20069;-58
2023/09/14 09:41:11;;;;;;;3.90;2.05;;;19.60;60.70;;;;;;4926291;28;20055;-58
2023/09/14 09:43:41;;;;;;;3.75;2.38;;;19.70;60.40;;;;;;4927100;28;20052;-58
2023/09/14 09:46:15;;;;;;;2.72;1.90;;;19.70;60.20;;;;;;4927224;28;20417;-57
2023/09/14 09:48:43;;;;;;;2.70;1.90;;;19.80;60.00;;;;;;4926676;28;20059;-58
2023/09/14 09:51:10;;;;;;;3.28;1.90;;;19.90;60.00;;;;;;4924170;28;20055;-59
2023/09/14 09:53:38;;;;;;;3.17;2.08;;;19.90;59.80;;;;;;4926770;28;20055;-58
2023/09/14 09:56:05;;;;;;;5.05;1.95;;;19.90;59.40;;;;;;4927014;28;20060;-59
2023/09/14 09:58:36;;;;;;;4.70;1.90;;;20.00;59.20;;;;;;4926489;28;20058;-59
2023/09/14 10:01:06;;;;;;;2.85;1.92;;;20.00;59.00;;;;;;4924963;28;20531;-60
2023/09/14 10:03:34;;;;;;;4.25;1.88;;;20.00;58.90;;;;;;4926425;28;20090;-59
2023/09/14 10:06:01;;;;;;;2.92;1.83;;;20.10;58.80;;;;;;4928637;28;20063;-59
2023/09/14 10:08:29;;;;;;;3.10;1.95;;;20.10;58.70;;;;;;4928177;28;20052;-60
2023/09/14 10:10:57;;;;;;;2.33;1.33;;;20.10;58.60;;;;;;4930718;28;20496;-60
2023/09/14 10:13:25;;;;;;;3.67;1.38;;;20.10;58.50;;;;;;4930464;28;20051;-58
2023/09/14 10:15:54;;;;;;;2.25;1.20;;;20.10;58.20;;;;;;4929451;28;20059;-59
2023/09/14 10:18:24;;;;;;;1.83;1.13;;;20.10;57.90;;;;;;4929314;28;20058;-57
2023/09/14 10:20:52;;;;;;;1.88;1.17;;;20.20;57.30;;;;;;4929178;28;20047;-59
2023/09/14 10:23:21;;;;;;;1.35;0.90;;;20.20;57.30;;;;;;4929941;28;20067;-57
2023/09/14 10:25:50;;;;;;;1.52;0.80;;;20.30;57.30;;;;;;4929868;28;20058;-57
2023/09/14 10:28:20;;;;;;;1.75;0.90;;;20.30;57.10;;;;;;4930170;28;20066;-57
2023/09/14 10:30:49;;;;;;;1.95;1.10;;;20.40;56.90;;;;;;4930031;28;20051;-58
2023/09/14 10:33:17;;;;;;;3.10;1.10;;;20.50;56.90;;;;;;4929171;28;20062;-57
2023/09/14 10:35:48;;;;;;;1.95;1.02;;;20.50;56.90;;;;;;4930362;28;20400;-57
2023/09/14 10:38:17;;;;;;;1.73;0.90;;;20.60;56.40;;;;;;4929436;28;20059;-57
2023/09/14 10:40:46;;;;;;;1.92;1.10;;;20.60;56.30;;;;;;4929797;28;20416;-58
2023/09/14 10:43:13;;;;;;;1.45;0.80;;;20.70;56.40;;;;;;4928124;28;20051;-57
2023/09/14 10:45:43;;;;;;;2.80;1.40;;;20.80;56.10;;;;;;4928534;28;22194;-58
2023/09/14 10:48:16;;;;;;;2.95;1.20;;;20.80;55.70;;;;;;4928974;28;20412;-57
2023/09/14 10:50:44;;;;;;;1.98;1.08;;;20.90;55.60;;;;;;4926654;28;20059;-59
2023/09/14 10:53:14;;;;;;;4.90;1.23;;;21.00;55.40;;;;;;4929062;28;20055;-58
2023/09/14 10:55:43;;;;;;;2.97;1.23;;;21.00;54.90;;;;;;4929772;28;20090;-57
2023/09/14 10:58:12;;;;;;;1.80;1.10;;;21.10;54.70;;;;;;4928862;28;20600;-58
2023/09/14 11:00:39;;;;;;;3.92;1.40;;;21.10;54.40;;;;;;4928406;28;20055;-59
2023/09/14 11:03:07;;;;;;;3.17;1.48;;;21.20;54.30;;;;;;4929346;28;21718;-57
2023/09/14 11:05:42;;;;;;;1.55;1.13;;;21.20;53.90;;;;;;4927562;28;20062;-59
2023/09/14 11:08:10;;;;;;;8.25;1.27;;;21.20;53.30;;;;;;4927677;28;20070;-57
2023/09/14 11:10:39;;;;;;;2.38;1.52;;;21.30;53.00;;;;;;4929439;28;20055;-56
2023/09/14 11:13:33;;;;;;;2.33;1.63;;;21.30;52.60;;;;;;4928261;28;20066;-57
2023/09/14 11:16:12;;;;;;;2.95;1.40;;;21.30;52.00;;;;;;4901612;28;20420;-55
2023/09/14 11:18:53;;;;;;;1.17;1.00;;;21.30;51.50;;;;;;4928827;28;20054;-57
2023/09/14 11:21:42;;;;;;;1.73;1.08;;;21.40;51.50;;;;;;4928164;28;20058;-57
2023/09/14 11:24:10;;;;;;;2.20;1.25;;;21.40;52.00;;;;;;4928364;28;20058;-55
2023/09/14 11:26:46;;;;;;;1.90;1.20;;;21.40;52.00;;;;;;4929403;28;20392;-57
2023/09/14 11:29:14;;;;;;;2.05;1.60;;;21.40;51.40;;;;;;4928116;28;20064;-56
2023/09/14 11:31:42;;;;;;;1.88;1.17;;;21.40;51.60;;;;;;4927385;28;20522;-57
2023/09/14 11:34:14;;;;;;;3.45;1.30;;;21.40;51.30;;;;;;4927766;28;20059;-57
2023/09/14 11:36:44;;;;;;;4.95;1.88;;;21.40;50.60;;;;;;4927942;28;20519;-57
2023/09/14 11:39:12;;;;;;;2.97;1.52;;;21.40;50.00;;;;;;4927899;28;20059;-57
2023/09/14 11:41:57;;;;;;;2.13;1.30;;;21.50;50.10;;;;;;4928008;28;20058;-55
2023/09/14 11:44:27;;;;;;;3.72;1.70;;;21.40;48.70;;;;;;4929802;28;20062;-57
2023/09/14 11:46:57;;;;;;;2.97;1.35;;;21.40;49.80;;;;;;4927058;28;20139;-57
2023/09/14 11:49:28;;;;;;;2.08;1.25;;;21.50;49.40;;;;;;4928158;28;20059;-57
2023/09/14 11:51:55;;;;;;;3.08;1.40;;;21.50;49.70;;;;;;4926665;28;20055;-57
2023/09/14 11:54:23;;;;;;;2.10;1.50;;;21.50;50.10;;;;;;4926982;28;20515;-57
2023/09/14 11:56:55;;;;;;;2.28;1.40;;;21.60;50.30;;;;;;4929039;28;20500;-58
2023/09/14 11:59:30;;;;;;;5.05;1.70;;;21.60;50.30;;;;;;4928803;28;20416;-57
2023/09/14 12:01:58;;;;;;;2.33;1.40;;;21.60;50.20;;;;;;4929948;28;20063;-57
2023/09/14 12:04:27;;;;;;;1.85;1.23;;;21.70;49.60;;;;;;4928051;28;20059;-57
2023/09/14 12:06:55;;;;;;;2.10;1.30;;;21.60;50.00;;;;;;4927103;28;20062;-57
2023/09/14 12:09:39;;;;;;;5.97;1.30;;;21.70;50.30;;;;;;4927868;28;20071;-58
2023/09/14 12:12:10;;;;;;;2.70;1.52;;;21.70;50.30;;;;;;4927305;28;20054;-58
2023/09/14 12:14:39;;;;;;;3.22;1.38;;;21.70;50.50;;;;;;4928068;28;20062;-58
2023/09/14 12:17:20;;;;;;;3.10;1.23;;;21.80;50.40;;;;;;4927800;28;20058;-59
2023/09/14 12:19:50;;;;;;;2.35;1.35;;;21.80;49.70;;;;;;4927590;28;20070;-58
2023/09/14 12:22:21;;;;;;;3.45;1.58;;;21.80;50.10;;;;;;4926652;28;20594;-57
2023/09/14 12:24:49;;;;;;;1.67;1.15;;;21.80;50.10;;;;;;4927524;28;20067;-57
2023/09/14 12:27:18;;;;;;;1.75;1.42;;;21.90;50.30;;;;;;4927023;28;20060;-58
2023/09/14 12:29:47;;;;;;;1.60;1.33;;;21.90;49.40;;;;;;4927188;28;20511;-57
2023/09/14 12:32:16;;;;;;;3.25;1.67;;;21.90;49.40;;;;;;4928074;28;20078;-57
2023/09/14 12:34:44;;;;;;;3.67;1.50;;;21.90;48.80;;;;;;4927333;28;20059;-58
2023/09/14 12:37:12;;;;;;;6.55;1.98;;;21.90;49.40;;;;;;4926099;28;20062;-58
2023/09/14 12:39:45;;;;;;;2.55;1.63;;;22.00;49.60;;;;;;4927398;28;20518;-58
2023/09/14 12:42:13;;;;;;;2.43;1.40;;;22.00;49.40;;;;;;4926236;28;20078;-58
2023/09/14 12:44:42;;;;;;;2.42;1.05;;;22.00;49.80;;;;;;4926898;28;20506;-58
2023/09/14 12:47:09;;;;;;;2.47;1.67;;;22.00;49.30;;;;;;4927151;28;20056;-57
2023/09/14 12:49:36;;;;;;;4.22;1.70;;;22.10;48.70;;;;;;4927632;28;20492;-58
2023/09/14 12:52:06;;;;;;;1.50;1.17;;;22.10;48.30;;;;;;4925228;28;20047;-58